sensor_id;sensor_type;location;lat;lon;timestamp;P1;durP1;ratioP1;P2;durP2;ratioP2
77415;SDS011;66489;49.230;8.520;2023-03-08T05:00:45;18.08;;;8.07;;
77415;SDS011;66489;49.230;8.520;2023-03-08T05:03:13;17.10;;;7.80;;
77415;SDS011;66489;49.230;8.520;2023-03-08T05:05:43;16.40;;;8.40;;
77415;SDS011;66489;49.230;8.520;2023-03-08T05:08:11;17.42;;;8.50;;
77415;SDS011;66489;49.230;8.520;2023-03-08T05:10:38;19.10;;;8.13;;
77415;SDS011;66489;49.230;8.520;2023-03-08T05:13:05;18.08;;;8.15;;
77415;SDS011;66489;49.230;8.520;2023-03-08T05:15:32;17.50;;;8.75;;
77415;SDS011;66489;49.230;8.520;2023-03-08T05:18:00;15.60;;;8.43;;
77415;SDS011;66489;49.230;8.520;2023-03-08T05:20:27;16.75;;;8.85;;
77415;SDS011;66489;49.230;8.520;2023-03-08T05:22:54;16.70;;;8.48;;
77415;SDS011;66489;49.230;8.520;2023-03-08T05:25:32;16.52;;;8.18;;
77415;SDS011;66489;49.230;8.520;2023-03-08T05:28:00;18.60;;;8.43;;
77415;SDS011;66489;49.230;8.520;2023-03-08T05:30:27;17.85;;;9.23;;
77415;SDS011;66489;49.230;8.520;2023-03-08T05:32:54;15.57;;;8.40;;
77415;SDS011;66489;49.230;8.520;2023-03-08T05:35:20;14.90;;;7.78;;
77415;SDS011;66489;49.230;8.520;2023-03-08T05:37:49;14.48;;;7.70;;
77415;SDS011;66489;49.230;8.520;2023-03-08T05:40:16;16.15;;;8.50;;
77415;SDS011;66489;49.230;8.520;2023-03-08T05:42:44;15.48;;;8.20;;
77415;SDS011;66489;49.230;8.520;2023-03-08T05:45:12;18.38;;;8.63;;
77415;SDS011;66489;49.230;8.520;2023-03-08T05:47:39;16.40;;;8.35;;
77415;SDS011;66489;49.230;8.520;2023-03-08T05:50:07;17.80;;;8.07;;
77415;SDS011;66489;49.230;8.520;2023-03-08T05:55:04;15.63;;;8.10;;
77415;SDS011;66489;49.230;8.520;2023-03-08T05:57:31;15.43;;;8.20;;
77415;SDS011;66489;49.230;8.520;2023-03-08T05:59:57;15.27;;;7.82;;
77415;SDS011;66489;49.230;8.520;2023-03-08T06:02:25;16.05;;;8.02;;
77415;SDS011;66489;49.230;8.520;2023-03-08T06:04:53;16.17;;;8.50;;
77415;SDS011;66489;49.230;8.520;2023-03-08T06:07:22;16.70;;;8.43;;
77415;SDS011;66489;49.230;8.520;2023-03-08T06:09:54;20.23;;;8.95;;
77415;SDS011;66489;49.230;8.520;2023-03-08T06:12:22;18.95;;;10.55;;
77415;SDS011;66489;49.230;8.520;2023-03-08T06:14:52;14.32;;;7.40;;
77415;SDS011;66489;49.230;8.520;2023-03-08T06:17:21;18.75;;;8.88;;
77415;SDS011;66489;49.230;8.520;2023-03-08T06:19:49;21.02;;;8.90;;
77415;SDS011;66489;49.230;8.520;2023-03-08T06:22:16;20.10;;;8.70;;
77415;SDS011;66489;49.230;8.520;2023-03-08T06:24:44;17.23;;;8.75;;
77415;SDS011;66489;49.230;8.520;2023-03-08T06:27:18;19.88;;;8.98;;
77415;SDS011;66489;49.230;8.520;2023-03-08T06:29:47;20.50;;;9.93;;
77415;SDS011;66489;49.230;8.520;2023-03-08T06:32:14;18.15;;;9.18;;
77415;SDS011;66489;49.230;8.520;2023-03-08T06:34:41;17.95;;;8.75;;
77415;SDS011;66489;49.230;8.520;2023-03-08T06:37:09;16.88;;;8.70;;
77415;SDS011;66489;49.230;8.520;2023-03-08T06:39:36;18.42;;;9.65;;
77415;SDS011;66489;49.230;8.520;2023-03-08T06:42:04;19.48;;;9.90;;
77415;SDS011;66489;49.230;8.520;2023-03-08T06:44:31;20.88;;;9.80;;
77415;SDS011;66489;49.230;8.520;2023-03-08T06:46:57;19.02;;;9.68;;
77415;SDS011;66489;49.230;8.520;2023-03-08T06:49:24;18.45;;;9.40;;
77415;SDS011;66489;49.230;8.520;2023-03-08T06:51:51;18.33;;;9.10;;
77415;SDS011;66489;49.230;8.520;2023-03-08T06:54:19;18.25;;;9.02;;
77415;SDS011;66489;49.230;8.520;2023-03-08T06:56:47;16.92;;;9.25;;
77415;SDS011;66489;49.230;8.520;2023-03-08T06:59:13;17.55;;;9.10;;
77415;SDS011;66489;49.230;8.520;2023-03-08T07:01:40;17.90;;;9.75;;
77415;SDS011;66489;49.230;8.520;2023-03-08T07:04:06;18.88;;;9.35;;
77415;SDS011;66489;49.230;8.520;2023-03-08T07:06:33;16.25;;;8.60;;
77415;SDS011;66489;49.230;8.520;2023-03-08T07:09:00;17.30;;;8.95;;
77415;SDS011;66489;49.230;8.520;2023-03-08T07:11:26;19.70;;;9.95;;
77415;SDS011;66489;49.230;8.520;2023-03-08T07:13:55;20.20;;;9.25;;
77415;SDS011;66489;49.230;8.520;2023-03-08T07:16:22;19.05;;;9.60;;
77415;SDS011;66489;49.230;8.520;2023-03-08T07:18:49;19.85;;;9.85;;
77415;SDS011;66489;49.230;8.520;2023-03-08T07:21:15;23.10;;;10.82;;
77415;SDS011;66489;49.230;8.520;2023-03-08T07:23:42;18.50;;;9.98;;
77415;SDS011;66489;49.230;8.520;2023-03-08T07:26:09;21.20;;;9.93;;
77415;SDS011;66489;49.230;8.520;2023-03-08T07:28:38;22.55;;;11.18;;
77415;SDS011;66489;49.230;8.520;2023-03-08T07:31:05;21.42;;;10.48;;
77415;SDS011;66489;49.230;8.520;2023-03-08T07:33:31;24.27;;;11.15;;
77415;SDS011;66489;49.230;8.520;2023-03-08T07:35:59;24.42;;;11.25;;
77415;SDS011;66489;49.230;8.520;2023-03-08T07:38:27;20.13;;;10.55;;
77415;SDS011;66489;49.230;8.520;2023-03-08T07:40:54;24.67;;;11.75;;
77415;SDS011;66489;49.230;8.520;2023-03-08T07:43:22;21.08;;;10.27;;
77415;SDS011;66489;49.230;8.520;2023-03-08T07:46:03;23.58;;;11.40;;
77415;SDS011;66489;49.230;8.520;2023-03-08T07:48:30;22.15;;;10.63;;
77415;SDS011;66489;49.230;8.520;2023-03-08T07:51:01;27.98;;;10.80;;
77415;SDS011;66489;49.230;8.520;2023-03-08T07:53:32;26.58;;;12.23;;
77415;SDS011;66489;49.230;8.520;2023-03-08T07:55:59;20.40;;;11.10;;
77415;SDS011;66489;49.230;8.520;2023-03-08T07:58:26;28.33;;;11.93;;
77415;SDS011;66489;49.230;8.520;2023-03-08T08:00:53;26.52;;;12.75;;
77415;SDS011;66489;49.230;8.520;2023-03-08T08:03:19;24.70;;;12.15;;
77415;SDS011;66489;49.230;8.520;2023-03-08T08:05:46;22.25;;;12.18;;
77415;SDS011;66489;49.230;8.520;2023-03-08T08:08:13;22.85;;;11.98;;
77415;SDS011;66489;49.230;8.520;2023-03-08T08:10:40;23.58;;;11.35;;
77415;SDS011;66489;49.230;8.520;2023-03-08T08:13:07;23.67;;;12.02;;
77415;SDS011;66489;49.230;8.520;2023-03-08T08:15:34;28.25;;;12.80;;
77415;SDS011;66489;49.230;8.520;2023-03-08T08:18:00;23.58;;;12.85;;
77415;SDS011;66489;49.230;8.520;2023-03-08T08:20:27;25.30;;;12.57;;
77415;SDS011;66489;49.230;8.520;2023-03-08T08:22:53;25.67;;;12.80;;
77415;SDS011;66489;49.230;8.520;2023-03-08T08:25:20;29.77;;;14.40;;
77415;SDS011;66489;49.230;8.520;2023-03-08T08:27:47;34.03;;;19.83;;
77415;SDS011;66489;49.230;8.520;2023-03-08T08:30:13;34.22;;;17.00;;
77415;SDS011;66489;49.230;8.520;2023-03-08T08:32:40;25.77;;;12.68;;
77415;SDS011;66489;49.230;8.520;2023-03-08T08:35:07;27.60;;;14.05;;
77415;SDS011;66489;49.230;8.520;2023-03-08T08:37:34;30.25;;;16.85;;
77415;SDS011;66489;49.230;8.520;2023-03-08T08:40:00;30.38;;;17.40;;
77415;SDS011;66489;49.230;8.520;2023-03-08T08:42:27;31.60;;;18.70;;
77415;SDS011;66489;49.230;8.520;2023-03-08T08:44:54;28.13;;;16.13;;
77415;SDS011;66489;49.230;8.520;2023-03-08T08:47:21;29.92;;;14.00;;
77415;SDS011;66489;49.230;8.520;2023-03-08T08:49:47;28.40;;;13.98;;
77415;SDS011;66489;49.230;8.520;2023-03-08T08:52:14;40.00;;;23.48;;
77415;SDS011;66489;49.230;8.520;2023-03-08T08:54:41;37.25;;;22.20;;
77415;SDS011;66489;49.230;8.520;2023-03-08T08:57:07;29.63;;;17.65;;
77415;SDS011;66489;49.230;8.520;2023-03-08T08:59:34;29.02;;;15.95;;
77415;SDS011;66489;49.230;8.520;2023-03-08T09:02:01;25.10;;;13.90;;
77415;SDS011;66489;49.230;8.520;2023-03-08T09:04:27;24.88;;;12.80;;
77415;SDS011;66489;49.230;8.520;2023-03-08T09:06:54;30.83;;;19.50;;
77415;SDS011;66489;49.230;8.520;2023-03-08T09:09:21;25.45;;;13.63;;
77415;SDS011;66489;49.230;8.520;2023-03-08T09:11:47;24.15;;;14.02;;
77415;SDS011;66489;49.230;8.520;2023-03-08T09:14:21;22.75;;;11.18;;
77415;SDS011;66489;49.230;8.520;2023-03-08T09:16:48;23.58;;;15.05;;
77415;SDS011;66489;49.230;8.520;2023-03-08T09:19:14;25.73;;;13.15;;
77415;SDS011;66489;49.230;8.520;2023-03-08T09:21:41;22.70;;;13.75;;
77415;SDS011;66489;49.230;8.520;2023-03-08T09:24:09;20.13;;;11.60;;
77415;SDS011;66489;49.230;8.520;2023-03-08T09:26:36;22.00;;;11.55;;
77415;SDS011;66489;49.230;8.520;2023-03-08T09:29:03;23.50;;;10.65;;
77415;SDS011;66489;49.230;8.520;2023-03-08T09:31:31;22.42;;;11.35;;
77415;SDS011;66489;49.230;8.520;2023-03-08T09:33:59;21.05;;;11.13;;
77415;SDS011;66489;49.230;8.520;2023-03-08T09:36:25;24.00;;;14.43;;
77415;SDS011;66489;49.230;8.520;2023-03-08T09:38:54;22.42;;;11.93;;
77415;SDS011;66489;49.230;8.520;2023-03-08T09:49:35;19.98;;;10.32;;
77415;SDS011;66489;49.230;8.520;2023-03-08T09:52:08;23.08;;;11.65;;
77415;SDS011;66489;49.230;8.520;2023-03-08T09:54:48;20.73;;;11.73;;
77415;SDS011;66489;49.230;8.520;2023-03-08T09:57:17;19.42;;;10.75;;
77415;SDS011;66489;49.230;8.520;2023-03-08T09:59:53;22.27;;;11.43;;
77415;SDS011;66489;49.230;8.520;2023-03-08T10:02:43;23.33;;;11.73;;
77415;SDS011;66489;49.230;8.520;2023-03-08T10:05:14;24.27;;;11.65;;
77415;SDS011;66489;49.230;8.520;2023-03-08T10:15:55;20.63;;;10.95;;
77415;SDS011;66489;49.230;8.520;2023-03-08T10:18:36;25.27;;;11.73;;
77415;SDS011;66489;49.230;8.520;2023-03-08T10:21:09;21.77;;;10.60;;
77415;SDS011;66489;49.230;8.520;2023-03-08T10:23:37;21.85;;;11.20;;
77415;SDS011;66489;49.230;8.520;2023-03-08T10:26:10;21.95;;;10.90;;
77415;SDS011;66489;49.230;8.520;2023-03-08T10:28:38;21.58;;;10.48;;
77415;SDS011;66489;49.230;8.520;2023-03-08T10:31:14;20.92;;;11.07;;
77415;SDS011;66489;49.230;8.520;2023-03-08T10:36:17;19.05;;;10.00;;
77415;SDS011;66489;49.230;8.520;2023-03-08T10:38:55;21.90;;;11.60;;
77415;SDS011;66489;49.230;8.520;2023-03-08T10:41:29;21.55;;;11.00;;
77415;SDS011;66489;49.230;8.520;2023-03-08T10:43:58;23.07;;;13.27;;
77415;SDS011;66489;49.230;8.520;2023-03-08T10:46:25;20.63;;;11.15;;
77415;SDS011;66489;49.230;8.520;2023-03-08T10:49:05;22.05;;;11.57;;
77415;SDS011;66489;49.230;8.520;2023-03-08T10:51:33;26.98;;;14.68;;
77415;SDS011;66489;49.230;8.520;2023-03-08T10:54:04;24.08;;;13.00;;
77415;SDS011;66489;49.230;8.520;2023-03-08T10:56:35;28.00;;;15.60;;
77415;SDS011;66489;49.230;8.520;2023-03-08T10:59:03;21.40;;;11.68;;
77415;SDS011;66489;49.230;8.520;2023-03-08T11:01:31;22.60;;;11.45;;
77415;SDS011;66489;49.230;8.520;2023-03-08T11:04:00;21.77;;;11.63;;
77415;SDS011;66489;49.230;8.520;2023-03-08T11:06:27;24.17;;;11.73;;
77415;SDS011;66489;49.230;8.520;2023-03-08T11:08:55;23.65;;;11.57;;
77415;SDS011;66489;49.230;8.520;2023-03-08T11:11:22;22.75;;;11.52;;
77415;SDS011;66489;49.230;8.520;2023-03-08T11:13:49;23.23;;;12.43;;
77415;SDS011;66489;49.230;8.520;2023-03-08T11:19:04;31.80;;;11.95;;
77415;SDS011;66489;49.230;8.520;2023-03-08T11:27:48;19.17;;;11.55;;
77415;SDS011;66489;49.230;8.520;2023-03-08T11:39:21;19.10;;;10.30;;
77415;SDS011;66489;49.230;8.520;2023-03-08T11:41:57;22.50;;;11.10;;
77415;SDS011;66489;49.230;8.520;2023-03-08T11:52:43;17.80;;;9.60;;
77415;SDS011;66489;49.230;8.520;2023-03-08T11:57:55;17.30;;;9.85;;
77415;SDS011;66489;49.230;8.520;2023-03-08T12:00:31;17.77;;;9.88;;
77415;SDS011;66489;49.230;8.520;2023-03-08T12:03:20;18.65;;;10.00;;
77415;SDS011;66489;49.230;8.520;2023-03-08T12:05:56;16.30;;;9.50;;
77415;SDS011;66489;49.230;8.520;2023-03-08T12:08:28;17.02;;;10.13;;
77415;SDS011;66489;49.230;8.520;2023-03-08T12:13:49;20.70;;;10.50;;
77415;SDS011;66489;49.230;8.520;2023-03-08T12:16:24;20.95;;;10.77;;
77415;SDS011;66489;49.230;8.520;2023-03-08T12:32:28;18.50;;;10.88;;
77415;SDS011;66489;49.230;8.520;2023-03-08T12:35:03;19.67;;;11.38;;
77415;SDS011;66489;49.230;8.520;2023-03-08T12:37:53;22.00;;;11.10;;
77415;SDS011;66489;49.230;8.520;2023-03-08T12:43:13;18.10;;;10.20;;
77415;SDS011;66489;49.230;8.520;2023-03-08T12:56:25;16.58;;;8.63;;
77415;SDS011;66489;49.230;8.520;2023-03-08T12:59:23;13.55;;;7.90;;
77415;SDS011;66489;49.230;8.520;2023-03-08T13:02:14;13.90;;;7.97;;
77415;SDS011;66489;49.230;8.520;2023-03-08T13:04:48;14.70;;;8.13;;
77415;SDS011;66489;49.230;8.520;2023-03-08T13:07:58;17.20;;;8.80;;
77415;SDS011;66489;49.230;8.520;2023-03-08T13:10:34;14.35;;;9.00;;
77415;SDS011;66489;49.230;8.520;2023-03-08T13:15:35;14.77;;;9.50;;
77415;SDS011;66489;49.230;8.520;2023-03-08T13:30:39;9.38;;;4.18;;
77415;SDS011;66489;49.230;8.520;2023-03-08T13:33:32;6.85;;;3.85;;
77415;SDS011;66489;49.230;8.520;2023-03-08T13:36:06;5.05;;;2.85;;
77415;SDS011;66489;49.230;8.520;2023-03-08T13:39:27;4.95;;;2.70;;
77415;SDS011;66489;49.230;8.520;2023-03-08T13:42:09;6.20;;;2.72;;
77415;SDS011;66489;49.230;8.520;2023-03-08T13:44:37;5.55;;;2.75;;
77415;SDS011;66489;49.230;8.520;2023-03-08T13:47:10;4.93;;;2.50;;
77415;SDS011;66489;49.230;8.520;2023-03-08T13:49:45;3.67;;;1.60;;
77415;SDS011;66489;49.230;8.520;2023-03-08T13:52:14;4.60;;;1.73;;
77415;SDS011;66489;49.230;8.520;2023-03-08T13:54:48;3.95;;;2.10;;
77415;SDS011;66489;49.230;8.520;2023-03-08T13:57:28;4.50;;;1.98;;
77415;SDS011;66489;49.230;8.520;2023-03-08T13:59:57;4.00;;;2.08;;
77415;SDS011;66489;49.230;8.520;2023-03-08T14:02:30;5.15;;;2.40;;
77415;SDS011;66489;49.230;8.520;2023-03-08T14:04:57;4.55;;;2.20;;
77415;SDS011;66489;49.230;8.520;2023-03-08T14:07:27;4.70;;;2.05;;
77415;SDS011;66489;49.230;8.520;2023-03-08T14:09:55;4.35;;;2.33;;
77415;SDS011;66489;49.230;8.520;2023-03-08T14:12:26;4.30;;;2.10;;
77415;SDS011;66489;49.230;8.520;2023-03-08T14:15:02;4.22;;;2.08;;
77415;SDS011;66489;49.230;8.520;2023-03-08T14:17:31;4.50;;;2.20;;
77415;SDS011;66489;49.230;8.520;2023-03-08T14:20:00;7.35;;;2.75;;
77415;SDS011;66489;49.230;8.520;2023-03-08T14:22:28;3.65;;;1.80;;
77415;SDS011;66489;49.230;8.520;2023-03-08T14:25:04;4.13;;;1.60;;
77415;SDS011;66489;49.230;8.520;2023-03-08T14:27:39;4.22;;;1.63;;
77415;SDS011;66489;49.230;8.520;2023-03-08T14:30:11;5.20;;;2.10;;
77415;SDS011;66489;49.230;8.520;2023-03-08T14:32:57;6.70;;;3.08;;
77415;SDS011;66489;49.230;8.520;2023-03-08T14:35:50;4.60;;;1.95;;
77415;SDS011;66489;49.230;8.520;2023-03-08T14:38:26;3.92;;;1.70;;
77415;SDS011;66489;49.230;8.520;2023-03-08T14:40:53;3.63;;;1.73;;
77415;SDS011;66489;49.230;8.520;2023-03-08T14:43:21;3.75;;;1.70;;
77415;SDS011;66489;49.230;8.520;2023-03-08T14:53:39;4.00;;;1.73;;
77415;SDS011;66489;49.230;8.520;2023-03-08T14:56:10;6.20;;;1.93;;
77415;SDS011;66489;49.230;8.520;2023-03-08T14:58:43;4.45;;;1.67;;
77415;SDS011;66489;49.230;8.520;2023-03-08T15:01:12;4.53;;;2.17;;
77415;SDS011;66489;49.230;8.520;2023-03-08T15:03:52;5.30;;;2.30;;
77415;SDS011;66489;49.230;8.520;2023-03-08T15:06:20;5.32;;;2.80;;
77415;SDS011;66489;49.230;8.520;2023-03-08T15:08:48;4.55;;;1.90;;
77415;SDS011;66489;49.230;8.520;2023-03-08T15:11:15;4.65;;;2.30;;
77415;SDS011;66489;49.230;8.520;2023-03-08T15:13:42;6.22;;;2.50;;
77415;SDS011;66489;49.230;8.520;2023-03-08T15:16:08;4.53;;;2.35;;
77415;SDS011;66489;49.230;8.520;2023-03-08T15:18:38;4.45;;;2.35;;
77415;SDS011;66489;49.230;8.520;2023-03-08T15:21:05;5.78;;;2.58;;
77415;SDS011;66489;49.230;8.520;2023-03-08T15:23:32;4.13;;;2.10;;
77415;SDS011;66489;49.230;8.520;2023-03-08T15:26:03;4.43;;;2.10;;
77415;SDS011;66489;49.230;8.520;2023-03-08T15:28:31;4.35;;;1.90;;
77415;SDS011;66489;49.230;8.520;2023-03-08T15:30:57;5.38;;;2.50;;
77415;SDS011;66489;49.230;8.520;2023-03-08T15:33:24;6.70;;;2.83;;
77415;SDS011;66489;49.230;8.520;2023-03-08T15:35:50;4.10;;;2.30;;
77415;SDS011;66489;49.230;8.520;2023-03-08T15:38:17;5.28;;;2.85;;
77415;SDS011;66489;49.230;8.520;2023-03-08T15:40:44;3.65;;;1.77;;
77415;SDS011;66489;49.230;8.520;2023-03-08T15:43:11;4.68;;;1.67;;
77415;SDS011;66489;49.230;8.520;2023-03-08T15:45:37;3.75;;;1.67;;
77415;SDS011;66489;49.230;8.520;2023-03-08T15:48:05;4.18;;;1.92;;
77415;SDS011;66489;49.230;8.520;2023-03-08T15:50:33;4.95;;;2.47;;
77415;SDS011;66489;49.230;8.520;2023-03-08T15:53:00;11.27;;;5.28;;
77415;SDS011;66489;49.230;8.520;2023-03-08T15:55:27;5.93;;;2.90;;
77415;SDS011;66489;49.230;8.520;2023-03-08T15:57:54;4.75;;;2.25;;
77415;SDS011;66489;49.230;8.520;2023-03-08T16:00:21;3.38;;;1.65;;
77415;SDS011;66489;49.230;8.520;2023-03-08T16:02:49;4.57;;;1.90;;
77415;SDS011;66489;49.230;8.520;2023-03-08T16:05:17;5.15;;;2.30;;
77415;SDS011;66489;49.230;8.520;2023-03-08T16:07:45;5.60;;;2.42;;
77415;SDS011;66489;49.230;8.520;2023-03-08T16:10:12;5.15;;;1.88;;
77415;SDS011;66489;49.230;8.520;2023-03-08T16:12:39;3.30;;;1.50;;
77415;SDS011;66489;49.230;8.520;2023-03-08T16:15:06;4.82;;;1.85;;
77415;SDS011;66489;49.230;8.520;2023-03-08T16:17:33;4.13;;;1.38;;
77415;SDS011;66489;49.230;8.520;2023-03-08T16:20:00;3.45;;;1.48;;
77415;SDS011;66489;49.230;8.520;2023-03-08T16:22:31;4.00;;;1.60;;
77415;SDS011;66489;49.230;8.520;2023-03-08T16:24:59;3.78;;;1.67;;
77415;SDS011;66489;49.230;8.520;2023-03-08T16:27:27;3.72;;;1.75;;
77415;SDS011;66489;49.230;8.520;2023-03-08T16:32:21;4.05;;;2.00;;
77415;SDS011;66489;49.230;8.520;2023-03-08T16:34:48;4.45;;;2.10;;
77415;SDS011;66489;49.230;8.520;2023-03-08T16:37:18;3.63;;;1.65;;
77415;SDS011;66489;49.230;8.520;2023-03-08T16:39:49;5.45;;;1.40;;
77415;SDS011;66489;49.230;8.520;2023-03-08T16:42:17;2.95;;;1.38;;
77415;SDS011;66489;49.230;8.520;2023-03-08T16:44:48;3.38;;;1.40;;
77415;SDS011;66489;49.230;8.520;2023-03-08T16:47:17;4.78;;;2.40;;
77415;SDS011;66489;49.230;8.520;2023-03-08T16:49:44;7.07;;;3.60;;
77415;SDS011;66489;49.230;8.520;2023-03-08T16:52:11;5.90;;;3.47;;
77415;SDS011;66489;49.230;8.520;2023-03-08T16:54:38;5.55;;;3.10;;
77415;SDS011;66489;49.230;8.520;2023-03-08T16:57:05;8.70;;;5.63;;
77415;SDS011;66489;49.230;8.520;2023-03-08T16:59:44;8.77;;;5.65;;
77415;SDS011;66489;49.230;8.520;2023-03-08T17:02:12;6.43;;;3.67;;
77415;SDS011;66489;49.230;8.520;2023-03-08T17:04:46;7.25;;;3.88;;
77415;SDS011;66489;49.230;8.520;2023-03-08T17:07:14;8.23;;;5.60;;
77415;SDS011;66489;49.230;8.520;2023-03-08T17:10:01;11.88;;;8.40;;
77415;SDS011;66489;49.230;8.520;2023-03-08T17:12:29;13.98;;;8.57;;
77415;SDS011;66489;49.230;8.520;2023-03-08T17:14:56;8.93;;;5.68;;
77415;SDS011;66489;49.230;8.520;2023-03-08T17:17:23;10.85;;;8.02;;
77415;SDS011;66489;49.230;8.520;2023-03-08T17:19:51;10.40;;;6.43;;
77415;SDS011;66489;49.230;8.520;2023-03-08T17:22:19;8.65;;;5.70;;
77415;SDS011;66489;49.230;8.520;2023-03-08T17:24:46;6.80;;;3.92;;
77415;SDS011;66489;49.230;8.520;2023-03-08T17:27:13;7.88;;;5.15;;
77415;SDS011;66489;49.230;8.520;2023-03-08T17:29:40;10.10;;;5.25;;
77415;SDS011;66489;49.230;8.520;2023-03-08T17:32:06;11.75;;;6.70;;
77415;SDS011;66489;49.230;8.520;2023-03-08T17:34:33;8.02;;;4.90;;
77415;SDS011;66489;49.230;8.520;2023-03-08T17:37:00;6.43;;;4.10;;
77415;SDS011;66489;49.230;8.520;2023-03-08T17:39:26;10.63;;;6.03;;
77415;SDS011;66489;49.230;8.520;2023-03-08T17:41:53;8.48;;;4.43;;
77415;SDS011;66489;49.230;8.520;2023-03-08T17:44:19;11.13;;;7.03;;
77415;SDS011;66489;49.230;8.520;2023-03-08T17:46:46;17.13;;;11.18;;
77415;SDS011;66489;49.230;8.520;2023-03-08T17:49:12;23.50;;;16.58;;
77415;SDS011;66489;49.230;8.520;2023-03-08T17:51:41;16.45;;;11.23;;
77415;SDS011;66489;49.230;8.520;2023-03-08T17:54:08;9.80;;;5.97;;
77415;SDS011;66489;49.230;8.520;2023-03-08T17:56:37;10.05;;;5.95;;
77415;SDS011;66489;49.230;8.520;2023-03-08T17:59:06;9.65;;;6.95;;
77415;SDS011;66489;49.230;8.520;2023-03-08T18:01:32;11.27;;;7.80;;
77415;SDS011;66489;49.230;8.520;2023-03-08T18:03:59;14.52;;;9.63;;
77415;SDS011;66489;49.230;8.520;2023-03-08T18:06:27;21.13;;;14.73;;
77415;SDS011;66489;49.230;8.520;2023-03-08T18:09:05;32.97;;;23.17;;
77415;SDS011;66489;49.230;8.520;2023-03-08T18:11:41;19.50;;;14.60;;
77415;SDS011;66489;49.230;8.520;2023-03-08T18:14:10;19.50;;;14.50;;
77415;SDS011;66489;49.230;8.520;2023-03-08T18:16:38;27.20;;;21.70;;
77415;SDS011;66489;49.230;8.520;2023-03-08T18:19:05;30.65;;;22.67;;
77415;SDS011;66489;49.230;8.520;2023-03-08T18:21:33;29.02;;;22.75;;
77415;SDS011;66489;49.230;8.520;2023-03-08T18:24:00;31.20;;;22.35;;
77415;SDS011;66489;49.230;8.520;2023-03-08T18:26:26;18.52;;;12.65;;
77415;SDS011;66489;49.230;8.520;2023-03-08T18:28:53;12.15;;;8.48;;
77415;SDS011;66489;49.230;8.520;2023-03-08T18:31:21;10.40;;;6.60;;
77415;SDS011;66489;49.230;8.520;2023-03-08T18:33:51;10.77;;;6.68;;
77415;SDS011;66489;49.230;8.520;2023-03-08T18:36:21;10.75;;;7.00;;
77415;SDS011;66489;49.230;8.520;2023-03-08T18:38:48;11.00;;;6.90;;
77415;SDS011;66489;49.230;8.520;2023-03-08T18:41:25;9.25;;;6.30;;
77415;SDS011;66489;49.230;8.520;2023-03-08T18:43:53;8.20;;;5.38;;
77415;SDS011;66489;49.230;8.520;2023-03-08T18:46:22;10.90;;;7.63;;
77415;SDS011;66489;49.230;8.520;2023-03-08T18:48:59;11.63;;;7.53;;
77415;SDS011;66489;49.230;8.520;2023-03-08T18:51:29;13.40;;;8.55;;
77415;SDS011;66489;49.230;8.520;2023-03-08T18:53:59;12.52;;;8.80;;
77415;SDS011;66489;49.230;8.520;2023-03-08T18:56:26;12.13;;;8.60;;
77415;SDS011;66489;49.230;8.520;2023-03-08T18:58:56;12.18;;;8.25;;
77415;SDS011;66489;49.230;8.520;2023-03-08T19:01:28;14.52;;;9.15;;
77415;SDS011;66489;49.230;8.520;2023-03-08T19:03:58;12.80;;;8.98;;
77415;SDS011;66489;49.230;8.520;2023-03-08T19:06:26;9.17;;;6.87;;
77415;SDS011;66489;49.230;8.520;2023-03-08T19:08:53;8.00;;;4.65;;
77415;SDS011;66489;49.230;8.520;2023-03-08T19:11:25;6.82;;;4.15;;
77415;SDS011;66489;49.230;8.520;2023-03-08T19:13:58;8.38;;;5.57;;
77415;SDS011;66489;49.230;8.520;2023-03-08T19:16:33;7.47;;;4.80;;
77415;SDS011;66489;49.230;8.520;2023-03-08T19:19:03;9.60;;;5.60;;
77415;SDS011;66489;49.230;8.520;2023-03-08T19:21:36;7.40;;;4.78;;
77415;SDS011;66489;49.230;8.520;2023-03-08T19:24:07;8.95;;;6.30;;
77415;SDS011;66489;49.230;8.520;2023-03-08T19:26:34;27.42;;;14.27;;
77415;SDS011;66489;49.230;8.520;2023-03-08T19:29:07;13.93;;;8.65;;
77415;SDS011;66489;49.230;8.520;2023-03-08T19:31:42;14.73;;;10.32;;
77415;SDS011;66489;49.230;8.520;2023-03-08T19:34:09;21.42;;;13.05;;
77415;SDS011;66489;49.230;8.520;2023-03-08T19:36:37;188.52;;;63.15;;
77415;SDS011;66489;49.230;8.520;2023-03-08T19:39:05;24.77;;;18.02;;
77415;SDS011;66489;49.230;8.520;2023-03-08T19:41:34;21.45;;;14.25;;
77415;SDS011;66489;49.230;8.520;2023-03-08T19:44:00;17.27;;;12.57;;
77415;SDS011;66489;49.230;8.520;2023-03-08T19:46:33;11.98;;;8.18;;
77415;SDS011;66489;49.230;8.520;2023-03-08T19:49:02;7.45;;;4.78;;
77415;SDS011;66489;49.230;8.520;2023-03-08T19:51:30;6.75;;;3.17;;
77415;SDS011;66489;49.230;8.520;2023-03-08T19:53:58;7.03;;;3.53;;
77415;SDS011;66489;49.230;8.520;2023-03-08T19:56:32;7.15;;;3.60;;
77415;SDS011;66489;49.230;8.520;2023-03-08T19:59:02;5.18;;;2.65;;
77415;SDS011;66489;49.230;8.520;2023-03-08T20:01:30;3.92;;;2.20;;
77415;SDS011;66489;49.230;8.520;2023-03-08T20:04:12;5.80;;;3.00;;
77415;SDS011;66489;49.230;8.520;2023-03-08T20:06:42;7.95;;;5.05;;
77415;SDS011;66489;49.230;8.520;2023-03-08T20:09:16;10.70;;;5.70;;
77415;SDS011;66489;49.230;8.520;2023-03-08T20:11:58;6.15;;;3.33;;
77415;SDS011;66489;49.230;8.520;2023-03-08T20:14:36;6.00;;;3.13;;
77415;SDS011;66489;49.230;8.520;2023-03-08T20:17:08;5.68;;;2.92;;
77415;SDS011;66489;49.230;8.520;2023-03-08T20:19:36;5.75;;;3.00;;
77415;SDS011;66489;49.230;8.520;2023-03-08T20:22:03;5.60;;;3.35;;
77415;SDS011;66489;49.230;8.520;2023-03-08T20:24:30;5.85;;;3.67;;
77415;SDS011;66489;49.230;8.520;2023-03-08T20:26:58;5.15;;;2.70;;
77415;SDS011;66489;49.230;8.520;2023-03-08T20:29:28;5.72;;;3.17;;
77415;SDS011;66489;49.230;8.520;2023-03-08T20:31:58;5.47;;;2.53;;
77415;SDS011;66489;49.230;8.520;2023-03-08T20:34:31;7.03;;;3.75;;
77415;SDS011;66489;49.230;8.520;2023-03-08T20:37:00;11.27;;;4.78;;
77415;SDS011;66489;49.230;8.520;2023-03-08T20:39:27;8.65;;;4.00;;
77415;SDS011;66489;49.230;8.520;2023-03-08T20:41:54;6.68;;;3.42;;
77415;SDS011;66489;49.230;8.520;2023-03-08T20:44:25;6.65;;;3.17;;
77415;SDS011;66489;49.230;8.520;2023-03-08T20:46:54;7.47;;;3.67;;
77415;SDS011;66489;49.230;8.520;2023-03-08T20:49:24;4.38;;;2.10;;
77415;SDS011;66489;49.230;8.520;2023-03-08T20:51:53;4.10;;;1.70;;
77415;SDS011;66489;49.230;8.520;2023-03-08T20:54:20;5.40;;;2.88;;
77415;SDS011;66489;49.230;8.520;2023-03-08T20:56:47;5.75;;;3.10;;
77415;SDS011;66489;49.230;8.520;2023-03-08T20:59:14;7.95;;;3.67;;
77415;SDS011;66489;49.230;8.520;2023-03-08T21:01:41;12.73;;;6.20;;
77415;SDS011;66489;49.230;8.520;2023-03-08T21:04:11;11.55;;;5.13;;
77415;SDS011;66489;49.230;8.520;2023-03-08T21:06:38;11.38;;;4.57;;
77415;SDS011;66489;49.230;8.520;2023-03-08T21:09:05;8.07;;;3.60;;
77415;SDS011;66489;49.230;8.520;2023-03-08T21:11:31;10.88;;;3.75;;
77415;SDS011;66489;49.230;8.520;2023-03-08T21:14:01;5.20;;;2.70;;
77415;SDS011;66489;49.230;8.520;2023-03-08T21:16:34;6.55;;;2.90;;
77415;SDS011;66489;49.230;8.520;2023-03-08T21:19:01;6.03;;;3.33;;
77415;SDS011;66489;49.230;8.520;2023-03-08T21:21:33;4.60;;;2.65;;
77415;SDS011;66489;49.230;8.520;2023-03-08T21:24:12;5.88;;;3.03;;
77415;SDS011;66489;49.230;8.520;2023-03-08T21:26:41;6.18;;;2.50;;
77415;SDS011;66489;49.230;8.520;2023-03-08T21:29:12;6.03;;;2.88;;
77415;SDS011;66489;49.230;8.520;2023-03-08T21:34:09;6.40;;;2.42;;
77415;SDS011;66489;49.230;8.520;2023-03-08T21:36:37;4.88;;;2.30;;
77415;SDS011;66489;49.230;8.520;2023-03-08T21:39:05;3.80;;;2.10;;